CDT,Max TemperatureF,Mean TemperatureF,Min TemperatureF,Max Dew PointF,MeanDew PointF,Min DewpointF,Max Humidity, Mean Humidity, Min Humidity, Max Sea Level PressureIn, Mean Sea Level PressureIn, Min Sea Level PressureIn, Max VisibilityMiles, Mean VisibilityMiles, Min VisibilityMiles, Max Wind SpeedMPH, Mean Wind SpeedMPH, Max Gust SpeedMPH,PrecipitationIn, CloudCover, Events, WindDirDegrees
2013-8-1,80,68,57,61,52,46,91,57,29,29.99,29.95,29.89,10,10,10,16,6,23,0.00,1,,289
2013-8-2,81,68,56,59,53,45,91,60,29,29.99,29.88,29.84,10,10,7,14,3,20,0.00,2,,310
2013-8-3,79,64,50,54,49,42,94,60,29,30.17,30.08,30.00,10,10,7,13,2,16,0.00,2,,324
2013-8-4,76,63,50,55,50,44,93,65,32,30.25,30.19,30.12,10,10,5,6,3,,0.00,2,,44
2013-8-5,77,66,54,62,58,52,94,76,52,30.12,29.97,29.86,10,10,7,10,3,,0.00,6,Rain,179
2013-8-6,85,75,65,67,62,53,92,68,33,29.87,29.82,29.73,10,9,3,16,3,20,0.00,4,,215
2013-8-7,75,,75,67,67,67,76,76,76,29.79,29.79,29.79,10,10,10,13,13,17,0.00,3,,240
2013-8-8,79,70,60,59,51,42,90,50,27,30.06,30.02,30.00,10,10,10,7,3,,0.00,3,,142
2013-8-9,81,68,55,59,53,45,92,62,29,30.08,30.00,29.98,10,10,10,14,3,20,0.00,3,,304
2013-8-10,75,65,55,56,53,46,89,65,37,30.18,30.14,30.09,10,10,10,8,1,,0.00,6,,293
2013-8-11,69,60,52,63,58,50,94,87,78,30.14,30.10,30.04,10,9,0,6,1,,0.06,3,Fog-Rain,176
2013-8-12,81,68,56,67,57,50,95,70,34,30.05,29.98,29.92,10,7,0,12,2,16,0.00,6,Fog-Rain,326
2013-8-13,74,60,46,50,46,41,93,64,30,30.20,30.13,30.05,10,10,10,13,4,20,0.00,2,,352
2013-8-14,76,59,42,53,45,40,94,65,27,30.24,30.18,30.12,10,10,10,13,1,24,0.00,2,,300
2013-8-15,82,64,47,56,50,44,94,64,27,30.15,30.12,30.08,10,10,5,14,2,18,0.00,3,,292
2013-8-16,84,68,51,58,51,41,94,60,23,30.20,30.17,30.13,10,10,10,6,1,,0.00,1,,14
2013-8-17,86,68,51,57,53,46,94,63,25,30.26,30.21,30.17,10,10,5,9,1,,0.00,0,,162
2013-8-18,85,68,52,57,53,48,94,63,27,30.22,30.16,30.09,10,10,3,12,2,10,0.00,0,,166
2013-8-19,86,70,53,62,56,49,94,65,28,30.10,30.05,29.99,10,10,4,14,3,22,0.00,1,,234
2013-8-20,92,76,60,64,61,59,94,65,33,30.06,30.01,29.97,10,8,3,15,3,20,0.00,2,,192
2013-8-21,94,81,68,69,67,64,93,69,40,30.02,29.96,29.87,10,10,5,18,7,25,0.30,3,Rain,206
2013-8-22,83,72,62,66,60,54,94,71,37,30.14,30.08,30.01,10,8,0,8,2,,0.01,0,Fog,44
2013-8-23,83,68,54,60,55,49,94,65,32,30.22,30.18,30.14,10,10,10,9,3,16,0.00,1,,112
2013-8-24,87,70,54,66,58,47,95,66,27,30.26,30.20,30.14,10,10,1,12,3,17,0.00,0,,157
2013-8-25,96,84,71,69,66,64,82,60,34,30.16,30.09,30.03,10,10,10,18,9,26,0.00,0,,207
2013-8-26,95,82,70,76,69,64,93,69,38,30.16,30.01,29.93,10,10,1,17,6,21,0.55,2,Rain,214
2013-8-27,97,86,75,76,73,67,94,73,37,29.97,29.87,29.78,10,8,2,13,3,22,0.01,4,Rain,220
2013-8-28,86,79,72,73,69,64,94,76,48,30.06,30.00,29.90,10,9,2,8,3,,0.00,5,,49
2013-8-29,90,78,67,72,67,64,94,70,41,30.10,30.04,29.96,10,8,0,12,2,,0.00,1,Fog,164
2013-8-30,87,76,65,73,67,61,88,70,45,29.96,29.87,29.83,10,10,5,14,5,20,0.00,3,,10
2013-8-31,81,70,58,64,62,57,94,79,51,29.92,29.88,29.81,10,9,5,8,1,,0.00,3,,105